Terminal Aerodrome Forecast
Issued by NWS Wakefield, VA

Home | Current Version | Previous Version | Text Only | Print | Product List | Glossary On
Versions: 1 2 3 4 5 6 7 8 9 10 11 12 13
000
FTUS41 KAKQ 310823 AAA
TAFECG
TAF AMD
KECG 310823Z 3108/0106 VRB04KT P6SM VCTS BKN050CB
      TEMPO 3110/3112 VRB09G15KT 2SM -TSRA BR SCT012 BKN025CB
     FM311200 34005KT P6SM BKN250
     FM311500 01009KT P6SM SCT040
     FM312300 09005KT P6SM SKC=

USA.gov is the U.S. government's official web portal to all federal, state and local government web resources and services.